Morpeth, United Kingdom
Current Conditions -  °F | °C
As of 10:20 PM on Tuesday 21 Oct 2014 (Local Time) from EGNT Reporting Station
Few Clouds Few Clouds  
Wind Chill: 35°   Ceiling: Unl
Heat Index: 43°   Visibility: 6mi
Dew Point: 32°   Wind: 18mph
Humidity: 66%   Direction: 290°WNW
Pressure: 29.88"   Gusts: NA
Location:  55.17°N, 1.69°W
Report Text: EGNT 212120Z 29016KT 9999 FEW030 06/00 Q1012
Loading
Personal Weather Stations






























Interactive Weather Map
Tropical Storm Tracking
New forecast layout! Learn more

10-Day Weather Forecast

Advertisements
Track Severe Weather on mobile